sensor_id;sensor_type;location;lat;lon;timestamp;temperature;humidity
23301;DHT22;11819;51.394;12.340;2023-04-25T00:01:21;10.10;83.60
23301;DHT22;11819;51.394;12.340;2023-04-25T00:03:49;10.00;83.70
23301;DHT22;11819;51.394;12.340;2023-04-25T00:06:16;10.00;84.10
23301;DHT22;11819;51.394;12.340;2023-04-25T00:08:43;10.00;84.20
23301;DHT22;11819;51.394;12.340;2023-04-25T00:11:09;10.00;84.50
23301;DHT22;11819;51.394;12.340;2023-04-25T00:13:35;9.90;86.00
23301;DHT22;11819;51.394;12.340;2023-04-25T00:16:00;9.80;85.60
23301;DHT22;11819;51.394;12.340;2023-04-25T00:18:28;9.80;86.00
23301;DHT22;11819;51.394;12.340;2023-04-25T00:20:58;9.80;86.10
23301;DHT22;11819;51.394;12.340;2023-04-25T00:23:24;9.80;86.60
23301;DHT22;11819;51.394;12.340;2023-04-25T00:25:50;9.80;86.80
23301;DHT22;11819;51.394;12.340;2023-04-25T00:28:16;9.80;86.90
23301;DHT22;11819;51.394;12.340;2023-04-25T00:30:43;9.80;86.90
23301;DHT22;11819;51.394;12.340;2023-04-25T00:33:09;9.70;86.90
23301;DHT22;11819;51.394;12.340;2023-04-25T00:35:35;9.70;87.00
23301;DHT22;11819;51.394;12.340;2023-04-25T00:38:01;9.70;87.30
23301;DHT22;11819;51.394;12.340;2023-04-25T00:40:27;9.70;87.40
23301;DHT22;11819;51.394;12.340;2023-04-25T00:42:55;9.70;87.40
23301;DHT22;11819;51.394;12.340;2023-04-25T00:45:20;9.60;87.50
23301;DHT22;11819;51.394;12.340;2023-04-25T00:47:46;9.60;87.60
23301;DHT22;11819;51.394;12.340;2023-04-25T00:50:13;9.50;87.80
23301;DHT22;11819;51.394;12.340;2023-04-25T00:52:42;9.50;88.20
23301;DHT22;11819;51.394;12.340;2023-04-25T00:55:09;9.50;88.40
23301;DHT22;11819;51.394;12.340;2023-04-25T00:57:35;9.40;88.40
23301;DHT22;11819;51.394;12.340;2023-04-25T01:00:02;9.40;88.50
23301;DHT22;11819;51.394;12.340;2023-04-25T01:02:28;9.40;88.50
23301;DHT22;11819;51.394;12.340;2023-04-25T01:04:54;9.30;88.70
23301;DHT22;11819;51.394;12.340;2023-04-25T01:07:20;9.30;88.60
23301;DHT22;11819;51.394;12.340;2023-04-25T01:09:46;9.30;88.80
23301;DHT22;11819;51.394;12.340;2023-04-25T01:12:12;9.20;89.10
23301;DHT22;11819;51.394;12.340;2023-04-25T01:14:39;9.20;89.30
23301;DHT22;11819;51.394;12.340;2023-04-25T01:17:06;9.20;89.40
23301;DHT22;11819;51.394;12.340;2023-04-25T01:19:33;9.10;89.30
23301;DHT22;11819;51.394;12.340;2023-04-25T01:21:59;9.10;89.40
23301;DHT22;11819;51.394;12.340;2023-04-25T01:24:26;9.10;89.40
23301;DHT22;11819;51.394;12.340;2023-04-25T01:26:52;9.00;89.60
23301;DHT22;11819;51.394;12.340;2023-04-25T01:29:23;9.00;89.40
23301;DHT22;11819;51.394;12.340;2023-04-25T01:31:51;9.00;89.70
23301;DHT22;11819;51.394;12.340;2023-04-25T01:34:18;9.00;89.60
23301;DHT22;11819;51.394;12.340;2023-04-25T01:36:45;8.90;89.70
23301;DHT22;11819;51.394;12.340;2023-04-25T01:39:11;9.00;89.70
23301;DHT22;11819;51.394;12.340;2023-04-25T01:41:37;9.00;90.20
23301;DHT22;11819;51.394;12.340;2023-04-25T01:44:04;9.00;89.50
23301;DHT22;11819;51.394;12.340;2023-04-25T01:46:31;9.00;89.60
23301;DHT22;11819;51.394;12.340;2023-04-25T01:48:56;9.00;89.40
23301;DHT22;11819;51.394;12.340;2023-04-25T01:51:23;9.00;89.20
23301;DHT22;11819;51.394;12.340;2023-04-25T01:53:49;9.00;88.90
23301;DHT22;11819;51.394;12.340;2023-04-25T01:56:17;9.00;88.60
23301;DHT22;11819;51.394;12.340;2023-04-25T01:58:43;8.90;88.00
23301;DHT22;11819;51.394;12.340;2023-04-25T02:01:18;8.90;88.00
23301;DHT22;11819;51.394;12.340;2023-04-25T02:03:55;8.90;87.90
23301;DHT22;11819;51.394;12.340;2023-04-25T02:06:27;9.00;87.40
23301;DHT22;11819;51.394;12.340;2023-04-25T02:08:56;9.00;86.80
23301;DHT22;11819;51.394;12.340;2023-04-25T02:11:22;9.00;86.50
23301;DHT22;11819;51.394;12.340;2023-04-25T02:14:13;9.00;86.40
23301;DHT22;11819;51.394;12.340;2023-04-25T02:17:05;9.00;86.30
23301;DHT22;11819;51.394;12.340;2023-04-25T02:19:31;9.00;86.10
23301;DHT22;11819;51.394;12.340;2023-04-25T02:21:57;9.00;86.40
23301;DHT22;11819;51.394;12.340;2023-04-25T02:24:23;8.90;86.30
23301;DHT22;11819;51.394;12.340;2023-04-25T02:26:50;8.90;86.30
23301;DHT22;11819;51.394;12.340;2023-04-25T02:29:16;8.80;86.50
23301;DHT22;11819;51.394;12.340;2023-04-25T02:31:42;8.80;86.60
23301;DHT22;11819;51.394;12.340;2023-04-25T02:34:08;8.80;86.80
23301;DHT22;11819;51.394;12.340;2023-04-25T02:36:36;8.80;87.10
23301;DHT22;11819;51.394;12.340;2023-04-25T02:39:02;8.90;87.20
23301;DHT22;11819;51.394;12.340;2023-04-25T02:41:28;8.90;86.80
23301;DHT22;11819;51.394;12.340;2023-04-25T02:43:54;8.90;86.70
23301;DHT22;11819;51.394;12.340;2023-04-25T02:46:20;8.90;86.40
23301;DHT22;11819;51.394;12.340;2023-04-25T02:48:46;8.90;86.40
23301;DHT22;11819;51.394;12.340;2023-04-25T02:51:12;8.80;86.70
23301;DHT22;11819;51.394;12.340;2023-04-25T02:53:39;8.80;86.90
23301;DHT22;11819;51.394;12.340;2023-04-25T02:56:06;8.80;87.20
23301;DHT22;11819;51.394;12.340;2023-04-25T02:58:32;8.70;86.70
23301;DHT22;11819;51.394;12.340;2023-04-25T03:00:57;8.70;87.10
23301;DHT22;11819;51.394;12.340;2023-04-25T03:03:23;8.60;87.30
23301;DHT22;11819;51.394;12.340;2023-04-25T03:05:50;8.60;87.00
23301;DHT22;11819;51.394;12.340;2023-04-25T03:08:20;8.50;87.20
23301;DHT22;11819;51.394;12.340;2023-04-25T03:10:46;8.40;87.70
23301;DHT22;11819;51.394;12.340;2023-04-25T03:13:14;8.50;88.30
23301;DHT22;11819;51.394;12.340;2023-04-25T03:15:42;8.50;88.20
23301;DHT22;11819;51.394;12.340;2023-04-25T03:18:07;8.50;88.10
23301;DHT22;11819;51.394;12.340;2023-04-25T03:20:33;8.50;87.90
23301;DHT22;11819;51.394;12.340;2023-04-25T03:22:58;8.40;88.00
23301;DHT22;11819;51.394;12.340;2023-04-25T03:25:24;8.40;88.10
23301;DHT22;11819;51.394;12.340;2023-04-25T03:27:50;8.30;88.20
23301;DHT22;11819;51.394;12.340;2023-04-25T03:30:15;8.30;88.50
23301;DHT22;11819;51.394;12.340;2023-04-25T03:32:43;8.20;88.60
23301;DHT22;11819;51.394;12.340;2023-04-25T03:35:10;8.20;88.70
23301;DHT22;11819;51.394;12.340;2023-04-25T03:37:35;8.10;88.90
23301;DHT22;11819;51.394;12.340;2023-04-25T03:40:01;8.00;89.10
23301;DHT22;11819;51.394;12.340;2023-04-25T03:42:46;8.00;89.30
23301;DHT22;11819;51.394;12.340;2023-04-25T03:45:12;8.00;89.30
23301;DHT22;11819;51.394;12.340;2023-04-25T03:47:37;8.00;89.40
23301;DHT22;11819;51.394;12.340;2023-04-25T03:50:03;8.00;89.30
23301;DHT22;11819;51.394;12.340;2023-04-25T03:52:29;8.00;89.30
23301;DHT22;11819;51.394;12.340;2023-04-25T03:54:55;8.10;89.10
23301;DHT22;11819;51.394;12.340;2023-04-25T03:57:23;8.10;88.80
23301;DHT22;11819;51.394;12.340;2023-04-25T03:59:49;8.00;88.80
23301;DHT22;11819;51.394;12.340;2023-04-25T04:02:17;8.00;89.10
23301;DHT22;11819;51.394;12.340;2023-04-25T04:04:43;8.00;89.30
23301;DHT22;11819;51.394;12.340;2023-04-25T04:07:10;8.10;89.20
23301;DHT22;11819;51.394;12.340;2023-04-25T04:09:39;8.20;89.00
23301;DHT22;11819;51.394;12.340;2023-04-25T04:12:08;8.20;88.70
23301;DHT22;11819;51.394;12.340;2023-04-25T04:14:37;8.30;88.40
23301;DHT22;11819;51.394;12.340;2023-04-25T04:17:03;8.30;88.30
23301;DHT22;11819;51.394;12.340;2023-04-25T04:19:29;8.30;88.60
23301;DHT22;11819;51.394;12.340;2023-04-25T04:22:03;8.30;88.40
23301;DHT22;11819;51.394;12.340;2023-04-25T04:24:29;8.30;88.60
23301;DHT22;11819;51.394;12.340;2023-04-25T04:27:00;8.40;88.30
23301;DHT22;11819;51.394;12.340;2023-04-25T04:29:35;8.40;87.90
23301;DHT22;11819;51.394;12.340;2023-04-25T04:32:09;8.40;87.70
23301;DHT22;11819;51.394;12.340;2023-04-25T04:34:35;8.40;87.30
23301;DHT22;11819;51.394;12.340;2023-04-25T04:37:01;8.40;87.50
23301;DHT22;11819;51.394;12.340;2023-04-25T04:39:45;8.40;87.70
23301;DHT22;11819;51.394;12.340;2023-04-25T04:42:44;8.30;88.50
23301;DHT22;11819;51.394;12.340;2023-04-25T04:45:33;8.30;87.90
23301;DHT22;11819;51.394;12.340;2023-04-25T04:48:19;8.20;87.80
23301;DHT22;11819;51.394;12.340;2023-04-25T04:51:05;8.20;88.20
23301;DHT22;11819;51.394;12.340;2023-04-25T04:53:49;8.20;88.20
23301;DHT22;11819;51.394;12.340;2023-04-25T04:56:51;8.30;88.30
23301;DHT22;11819;51.394;12.340;2023-04-25T04:59:37;8.30;88.30
23301;DHT22;11819;51.394;12.340;2023-04-25T05:02:22;8.30;88.30
23301;DHT22;11819;51.394;12.340;2023-04-25T05:05:07;8.30;88.50
23301;DHT22;11819;51.394;12.340;2023-04-25T05:07:52;8.40;88.70
23301;DHT22;11819;51.394;12.340;2023-04-25T05:10:38;8.40;88.30
23301;DHT22;11819;51.394;12.340;2023-04-25T05:13:14;8.50;88.30
23301;DHT22;11819;51.394;12.340;2023-04-25T05:15:56;8.50;88.10
23301;DHT22;11819;51.394;12.340;2023-04-25T05:18:33;8.40;88.00
23301;DHT22;11819;51.394;12.340;2023-04-25T05:21:05;8.40;88.20
23301;DHT22;11819;51.394;12.340;2023-04-25T05:23:55;8.40;88.40
23301;DHT22;11819;51.394;12.340;2023-04-25T05:26:33;8.40;88.60
23301;DHT22;11819;51.394;12.340;2023-04-25T05:29:22;8.40;88.60
23301;DHT22;11819;51.394;12.340;2023-04-25T05:32:01;8.50;88.70
23301;DHT22;11819;51.394;12.340;2023-04-25T05:34:28;8.50;88.70
23301;DHT22;11819;51.394;12.340;2023-04-25T05:37:00;8.50;88.50
23301;DHT22;11819;51.394;12.340;2023-04-25T05:39:26;8.50;88.60
23301;DHT22;11819;51.394;12.340;2023-04-25T05:41:52;8.50;88.20
23301;DHT22;11819;51.394;12.340;2023-04-25T05:44:40;8.50;88.30
23301;DHT22;11819;51.394;12.340;2023-04-25T05:47:25;8.50;88.30
23301;DHT22;11819;51.394;12.340;2023-04-25T05:50:01;8.60;88.50
23301;DHT22;11819;51.394;12.340;2023-04-25T05:52:43;8.60;88.40
23301;DHT22;11819;51.394;12.340;2023-04-25T05:55:17;8.60;87.70
23301;DHT22;11819;51.394;12.340;2023-04-25T05:57:43;8.60;87.80
23301;DHT22;11819;51.394;12.340;2023-04-25T06:00:13;8.70;88.30
23301;DHT22;11819;51.394;12.340;2023-04-25T06:02:41;8.80;88.80
23301;DHT22;11819;51.394;12.340;2023-04-25T06:05:07;8.90;87.60
23301;DHT22;11819;51.394;12.340;2023-04-25T06:07:33;8.90;87.40
23301;DHT22;11819;51.394;12.340;2023-04-25T06:09:59;9.00;87.40
23301;DHT22;11819;51.394;12.340;2023-04-25T06:12:26;9.00;87.30
23301;DHT22;11819;51.394;12.340;2023-04-25T06:14:52;9.00;86.90
23301;DHT22;11819;51.394;12.340;2023-04-25T06:17:18;9.00;87.00
23301;DHT22;11819;51.394;12.340;2023-04-25T06:19:43;9.00;87.10
23301;DHT22;11819;51.394;12.340;2023-04-25T06:22:10;9.00;87.40
23301;DHT22;11819;51.394;12.340;2023-04-25T06:24:38;9.10;87.00
23301;DHT22;11819;51.394;12.340;2023-04-25T06:27:04;9.10;87.10
23301;DHT22;11819;51.394;12.340;2023-04-25T06:29:31;9.10;87.20
23301;DHT22;11819;51.394;12.340;2023-04-25T06:31:57;9.20;87.20
23301;DHT22;11819;51.394;12.340;2023-04-25T06:34:23;9.20;86.40
23301;DHT22;11819;51.394;12.340;2023-04-25T06:36:49;9.20;86.60
23301;DHT22;11819;51.394;12.340;2023-04-25T06:39:15;9.30;86.80
23301;DHT22;11819;51.394;12.340;2023-04-25T06:41:41;9.40;86.80
23301;DHT22;11819;51.394;12.340;2023-04-25T06:44:14;9.40;86.50
23301;DHT22;11819;51.394;12.340;2023-04-25T06:46:52;9.50;86.70
23301;DHT22;11819;51.394;12.340;2023-04-25T06:49:19;9.60;86.10
23301;DHT22;11819;51.394;12.340;2023-04-25T06:51:45;9.60;86.20
23301;DHT22;11819;51.394;12.340;2023-04-25T06:54:11;9.70;86.20
23301;DHT22;11819;51.394;12.340;2023-04-25T06:56:44;9.70;85.60
23301;DHT22;11819;51.394;12.340;2023-04-25T06:59:13;9.70;85.70
23301;DHT22;11819;51.394;12.340;2023-04-25T07:01:40;9.80;85.80
23301;DHT22;11819;51.394;12.340;2023-04-25T07:04:17;9.80;86.00
23301;DHT22;11819;51.394;12.340;2023-04-25T07:06:52;9.80;85.90
23301;DHT22;11819;51.394;12.340;2023-04-25T07:09:23;9.80;85.60
23301;DHT22;11819;51.394;12.340;2023-04-25T07:11:50;9.80;85.70
23301;DHT22;11819;51.394;12.340;2023-04-25T07:14:16;9.80;85.60
23301;DHT22;11819;51.394;12.340;2023-04-25T07:16:42;9.80;85.90
23301;DHT22;11819;51.394;12.340;2023-04-25T07:19:08;9.80;85.60
23301;DHT22;11819;51.394;12.340;2023-04-25T07:21:34;9.80;85.10
23301;DHT22;11819;51.394;12.340;2023-04-25T07:24:04;9.70;85.20
23301;DHT22;11819;51.394;12.340;2023-04-25T07:26:34;9.70;85.80
23301;DHT22;11819;51.394;12.340;2023-04-25T07:29:20;9.70;85.70
23301;DHT22;11819;51.394;12.340;2023-04-25T07:31:46;9.70;85.80
23301;DHT22;11819;51.394;12.340;2023-04-25T07:34:12;9.70;85.70
23301;DHT22;11819;51.394;12.340;2023-04-25T07:36:38;9.70;85.80
23301;DHT22;11819;51.394;12.340;2023-04-25T07:39:04;9.60;86.00
23301;DHT22;11819;51.394;12.340;2023-04-25T07:41:30;9.60;86.20
23301;DHT22;11819;51.394;12.340;2023-04-25T07:43:56;9.60;86.30
23301;DHT22;11819;51.394;12.340;2023-04-25T07:46:21;9.60;86.20
23301;DHT22;11819;51.394;12.340;2023-04-25T07:48:47;9.60;86.60
23301;DHT22;11819;51.394;12.340;2023-04-25T07:51:13;9.50;85.30
23301;DHT22;11819;51.394;12.340;2023-04-25T07:53:39;9.40;84.50
23301;DHT22;11819;51.394;12.340;2023-04-25T07:56:10;9.30;84.80
23301;DHT22;11819;51.394;12.340;2023-04-25T07:58:38;9.30;84.00
23301;DHT22;11819;51.394;12.340;2023-04-25T08:01:08;9.30;83.90
23301;DHT22;11819;51.394;12.340;2023-04-25T08:03:33;9.30;83.50
23301;DHT22;11819;51.394;12.340;2023-04-25T08:06:00;9.40;83.20
23301;DHT22;11819;51.394;12.340;2023-04-25T08:08:29;9.60;82.40
23301;DHT22;11819;51.394;12.340;2023-04-25T08:10:55;9.70;81.10
23301;DHT22;11819;51.394;12.340;2023-04-25T08:13:21;9.70;80.80
23301;DHT22;11819;51.394;12.340;2023-04-25T08:15:49;9.80;81.00
23301;DHT22;11819;51.394;12.340;2023-04-25T08:18:16;9.90;79.80
23301;DHT22;11819;51.394;12.340;2023-04-25T08:20:42;9.90;79.20
23301;DHT22;11819;51.394;12.340;2023-04-25T08:23:11;9.90;79.10
23301;DHT22;11819;51.394;12.340;2023-04-25T08:25:57;9.90;79.80
23301;DHT22;11819;51.394;12.340;2023-04-25T08:28:26;10.00;80.00
23301;DHT22;11819;51.394;12.340;2023-04-25T08:30:55;10.00;79.40
23301;DHT22;11819;51.394;12.340;2023-04-25T08:33:23;10.00;79.80
23301;DHT22;11819;51.394;12.340;2023-04-25T08:36:00;10.00;80.20
23301;DHT22;11819;51.394;12.340;2023-04-25T08:38:27;10.00;80.50
23301;DHT22;11819;51.394;12.340;2023-04-25T08:40:54;9.90;80.70
23301;DHT22;11819;51.394;12.340;2023-04-25T08:43:23;10.00;80.20
23301;DHT22;11819;51.394;12.340;2023-04-25T08:45:52;9.90;79.10
23301;DHT22;11819;51.394;12.340;2023-04-25T08:48:33;10.00;79.00
23301;DHT22;11819;51.394;12.340;2023-04-25T08:51:02;10.00;78.70
23301;DHT22;11819;51.394;12.340;2023-04-25T08:53:30;10.00;79.00
23301;DHT22;11819;51.394;12.340;2023-04-25T08:56:00;10.00;79.50
23301;DHT22;11819;51.394;12.340;2023-04-25T08:58:28;10.10;79.70
23301;DHT22;11819;51.394;12.340;2023-04-25T09:00:56;10.10;79.70
23301;DHT22;11819;51.394;12.340;2023-04-25T09:03:25;10.20;79.70
23301;DHT22;11819;51.394;12.340;2023-04-25T09:05:51;10.20;79.50
23301;DHT22;11819;51.394;12.340;2023-04-25T09:08:18;10.20;79.70
23301;DHT22;11819;51.394;12.340;2023-04-25T09:10:43;10.30;79.80
23301;DHT22;11819;51.394;12.340;2023-04-25T09:13:14;10.20;78.20
23301;DHT22;11819;51.394;12.340;2023-04-25T09:16:05;10.20;78.40
23301;DHT22;11819;51.394;12.340;2023-04-25T09:18:38;10.20;80.00
23301;DHT22;11819;51.394;12.340;2023-04-25T09:21:07;10.20;78.60
23301;DHT22;11819;51.394;12.340;2023-04-25T09:23:47;10.20;78.60
23301;DHT22;11819;51.394;12.340;2023-04-25T09:26:15;10.30;78.80
23301;DHT22;11819;51.394;12.340;2023-04-25T09:28:44;10.40;79.30
23301;DHT22;11819;51.394;12.340;2023-04-25T09:31:11;10.40;79.30
23301;DHT22;11819;51.394;12.340;2023-04-25T09:33:43;10.50;78.80
23301;DHT22;11819;51.394;12.340;2023-04-25T09:36:10;10.40;77.80
23301;DHT22;11819;51.394;12.340;2023-04-25T09:38:48;10.40;78.40
23301;DHT22;11819;51.394;12.340;2023-04-25T09:41:25;10.30;79.00
23301;DHT22;11819;51.394;12.340;2023-04-25T09:43:57;10.30;79.30
23301;DHT22;11819;51.394;12.340;2023-04-25T09:46:25;10.30;79.30
23301;DHT22;11819;51.394;12.340;2023-04-25T09:48:55;10.30;79.10
23301;DHT22;11819;51.394;12.340;2023-04-25T09:51:28;10.20;79.20
23301;DHT22;11819;51.394;12.340;2023-04-25T09:53:56;10.20;79.40
23301;DHT22;11819;51.394;12.340;2023-04-25T09:56:32;10.30;79.10
23301;DHT22;11819;51.394;12.340;2023-04-25T09:59:04;10.30;79.10
23301;DHT22;11819;51.394;12.340;2023-04-25T10:01:34;10.20;79.10
23301;DHT22;11819;51.394;12.340;2023-04-25T10:04:11;10.20;79.30
23301;DHT22;11819;51.394;12.340;2023-04-25T10:06:45;10.20;79.10
23301;DHT22;11819;51.394;12.340;2023-04-25T10:09:12;10.20;79.40
23301;DHT22;11819;51.394;12.340;2023-04-25T10:11:39;10.10;79.00
23301;DHT22;11819;51.394;12.340;2023-04-25T10:14:05;10.20;79.80
23301;DHT22;11819;51.394;12.340;2023-04-25T10:16:31;10.20;79.80
23301;DHT22;11819;51.394;12.340;2023-04-25T10:18:57;10.30;79.40
23301;DHT22;11819;51.394;12.340;2023-04-25T10:21:24;10.30;79.20
23301;DHT22;11819;51.394;12.340;2023-04-25T10:23:52;10.50;79.40
23301;DHT22;11819;51.394;12.340;2023-04-25T10:26:19;10.60;78.60
23301;DHT22;11819;51.394;12.340;2023-04-25T10:28:59;10.60;77.80
23301;DHT22;11819;51.394;12.340;2023-04-25T10:31:25;10.60;77.50
23301;DHT22;11819;51.394;12.340;2023-04-25T10:33:53;10.60;77.40
23301;DHT22;11819;51.394;12.340;2023-04-25T10:36:20;10.50;76.70
23301;DHT22;11819;51.394;12.340;2023-04-25T10:38:50;10.50;77.10
23301;DHT22;11819;51.394;12.340;2023-04-25T10:41:18;10.50;77.10
23301;DHT22;11819;51.394;12.340;2023-04-25T10:43:49;10.40;77.60
23301;DHT22;11819;51.394;12.340;2023-04-25T10:46:27;10.50;78.00
23301;DHT22;11819;51.394;12.340;2023-04-25T10:48:59;10.50;77.90
23301;DHT22;11819;51.394;12.340;2023-04-25T10:51:26;10.50;78.10
23301;DHT22;11819;51.394;12.340;2023-04-25T10:59:14;10.50;77.70
23301;DHT22;11819;51.394;12.340;2023-04-25T11:01:46;10.50;77.20
23301;DHT22;11819;51.394;12.340;2023-04-25T11:04:32;10.50;77.20
23301;DHT22;11819;51.394;12.340;2023-04-25T11:07:26;10.60;77.10
23301;DHT22;11819;51.394;12.340;2023-04-25T11:09:54;10.60;77.00
23301;DHT22;11819;51.394;12.340;2023-04-25T11:12:19;10.50;76.50
23301;DHT22;11819;51.394;12.340;2023-04-25T11:14:45;10.40;76.20
23301;DHT22;11819;51.394;12.340;2023-04-25T11:17:11;10.20;76.60
23301;DHT22;11819;51.394;12.340;2023-04-25T11:19:36;10.20;76.90
23301;DHT22;11819;51.394;12.340;2023-04-25T11:22:03;10.30;77.50
23301;DHT22;11819;51.394;12.340;2023-04-25T11:24:33;10.30;76.40
23301;DHT22;11819;51.394;12.340;2023-04-25T11:27:03;10.40;75.70
23301;DHT22;11819;51.394;12.340;2023-04-25T11:29:33;10.40;74.50
23301;DHT22;11819;51.394;12.340;2023-04-25T11:32:00;10.40;74.50
23301;DHT22;11819;51.394;12.340;2023-04-25T11:34:30;10.50;74.40
23301;DHT22;11819;51.394;12.340;2023-04-25T11:36:57;10.50;72.80
23301;DHT22;11819;51.394;12.340;2023-04-25T11:39:24;10.50;72.00
23301;DHT22;11819;51.394;12.340;2023-04-25T11:41:50;10.50;71.40
23301;DHT22;11819;51.394;12.340;2023-04-25T11:44:18;10.50;71.60
23301;DHT22;11819;51.394;12.340;2023-04-25T11:46:45;10.40;71.50
23301;DHT22;11819;51.394;12.340;2023-04-25T11:49:11;10.50;72.40
23301;DHT22;11819;51.394;12.340;2023-04-25T11:51:49;10.50;71.30
23301;DHT22;11819;51.394;12.340;2023-04-25T11:54:16;10.60;71.30
23301;DHT22;11819;51.394;12.340;2023-04-25T11:56:44;10.60;71.20
23301;DHT22;11819;51.394;12.340;2023-04-25T11:59:09;10.60;70.60
23301;DHT22;11819;51.394;12.340;2023-04-25T12:01:38;10.50;70.80
23301;DHT22;11819;51.394;12.340;2023-04-25T12:06:43;10.70;71.20
23301;DHT22;11819;51.394;12.340;2023-04-25T12:09:10;10.80;70.20
23301;DHT22;11819;51.394;12.340;2023-04-25T12:11:47;10.90;70.30
23301;DHT22;11819;51.394;12.340;2023-04-25T12:14:21;11.10;69.20
23301;DHT22;11819;51.394;12.340;2023-04-25T12:16:50;11.30;68.70
23301;DHT22;11819;51.394;12.340;2023-04-25T12:19:17;11.70;65.70
23301;DHT22;11819;51.394;12.340;2023-04-25T12:21:43;11.60;63.90
23301;DHT22;11819;51.394;12.340;2023-04-25T12:27:04;11.40;64.10
23301;DHT22;11819;51.394;12.340;2023-04-25T12:29:32;11.20;64.60
23301;DHT22;11819;51.394;12.340;2023-04-25T12:31:58;11.00;65.40
23301;DHT22;11819;51.394;12.340;2023-04-25T12:34:24;11.00;67.20
23301;DHT22;11819;51.394;12.340;2023-04-25T12:36:51;11.00;68.60
23301;DHT22;11819;51.394;12.340;2023-04-25T12:39:22;10.90;68.50
23301;DHT22;11819;51.394;12.340;2023-04-25T12:41:52;10.90;66.30
23301;DHT22;11819;51.394;12.340;2023-04-25T12:44:20;10.80;64.80
23301;DHT22;11819;51.394;12.340;2023-04-25T12:46:45;10.80;63.60
23301;DHT22;11819;51.394;12.340;2023-04-25T12:49:12;10.80;63.90
23301;DHT22;11819;51.394;12.340;2023-04-25T12:51:38;10.90;63.40
23301;DHT22;11819;51.394;12.340;2023-04-25T12:54:05;11.00;62.80
23301;DHT22;11819;51.394;12.340;2023-04-25T12:56:32;11.00;62.00
23301;DHT22;11819;51.394;12.340;2023-04-25T12:58:58;11.00;60.90
23301;DHT22;11819;51.394;12.340;2023-04-25T13:01:26;10.90;59.60
23301;DHT22;11819;51.394;12.340;2023-04-25T13:03:52;10.90;60.00
23301;DHT22;11819;51.394;12.340;2023-04-25T13:06:19;10.80;60.00
23301;DHT22;11819;51.394;12.340;2023-04-25T13:08:46;10.70;59.00
23301;DHT22;11819;51.394;12.340;2023-04-25T13:11:12;10.70;59.30
23301;DHT22;11819;51.394;12.340;2023-04-25T13:13:38;10.60;59.20
23301;DHT22;11819;51.394;12.340;2023-04-25T13:16:06;10.50;59.90
23301;DHT22;11819;51.394;12.340;2023-04-25T13:18:32;10.60;59.90
23301;DHT22;11819;51.394;12.340;2023-04-25T13:20:59;10.60;59.60
23301;DHT22;11819;51.394;12.340;2023-04-25T13:23:28;10.60;60.00
23301;DHT22;11819;51.394;12.340;2023-04-25T13:25:55;10.70;60.10
23301;DHT22;11819;51.394;12.340;2023-04-25T13:28:25;10.70;60.50
23301;DHT22;11819;51.394;12.340;2023-04-25T13:30:50;10.80;59.70
23301;DHT22;11819;51.394;12.340;2023-04-25T13:33:17;10.90;59.00
23301;DHT22;11819;51.394;12.340;2023-04-25T13:35:43;11.00;59.80
23301;DHT22;11819;51.394;12.340;2023-04-25T13:38:08;11.20;60.80
23301;DHT22;11819;51.394;12.340;2023-04-25T13:40:34;11.40;61.20
23301;DHT22;11819;51.394;12.340;2023-04-25T13:43:01;11.70;61.30
23301;DHT22;11819;51.394;12.340;2023-04-25T13:45:27;12.40;60.50
23301;DHT22;11819;51.394;12.340;2023-04-25T13:47:53;13.10;58.40
23301;DHT22;11819;51.394;12.340;2023-04-25T13:50:19;13.30;57.30
23301;DHT22;11819;51.394;12.340;2023-04-25T13:52:45;13.20;56.00
23301;DHT22;11819;51.394;12.340;2023-04-25T13:55:12;13.10;55.40
23301;DHT22;11819;51.394;12.340;2023-04-25T13:57:37;12.90;55.50
23301;DHT22;11819;51.394;12.340;2023-04-25T14:00:07;12.60;55.40
23301;DHT22;11819;51.394;12.340;2023-04-25T14:02:37;12.40;55.60
23301;DHT22;11819;51.394;12.340;2023-04-25T14:05:06;12.10;56.50
23301;DHT22;11819;51.394;12.340;2023-04-25T14:07:33;12.00;55.20
23301;DHT22;11819;51.394;12.340;2023-04-25T14:10:00;11.80;55.00
23301;DHT22;11819;51.394;12.340;2023-04-25T14:12:26;11.80;55.40
23301;DHT22;11819;51.394;12.340;2023-04-25T14:14:51;11.70;53.90
23301;DHT22;11819;51.394;12.340;2023-04-25T14:17:19;11.80;53.70
23301;DHT22;11819;51.394;12.340;2023-04-25T14:19:44;11.70;53.50
23301;DHT22;11819;51.394;12.340;2023-04-25T14:22:13;11.60;54.00
23301;DHT22;11819;51.394;12.340;2023-04-25T14:24:39;11.50;55.20
23301;DHT22;11819;51.394;12.340;2023-04-25T14:27:05;11.50;56.20
23301;DHT22;11819;51.394;12.340;2023-04-25T14:29:31;11.50;56.90
23301;DHT22;11819;51.394;12.340;2023-04-25T14:31:56;11.50;55.30
23301;DHT22;11819;51.394;12.340;2023-04-25T14:34:24;11.50;53.60
23301;DHT22;11819;51.394;12.340;2023-04-25T14:36:51;11.40;53.40
23301;DHT22;11819;51.394;12.340;2023-04-25T14:39:17;11.40;54.00
23301;DHT22;11819;51.394;12.340;2023-04-25T14:41:42;11.50;54.30
23301;DHT22;11819;51.394;12.340;2023-04-25T14:44:08;11.60;53.40
23301;DHT22;11819;51.394;12.340;2023-04-25T14:46:33;11.50;53.60
23301;DHT22;11819;51.394;12.340;2023-04-25T14:49:01;11.50;54.40
23301;DHT22;11819;51.394;12.340;2023-04-25T14:51:27;11.50;55.30
23301;DHT22;11819;51.394;12.340;2023-04-25T14:53:53;11.60;55.70
23301;DHT22;11819;51.394;12.340;2023-04-25T14:56:19;11.40;56.00
23301;DHT22;11819;51.394;12.340;2023-04-25T14:58:44;11.40;56.90
23301;DHT22;11819;51.394;12.340;2023-04-25T15:01:11;11.30;57.10
23301;DHT22;11819;51.394;12.340;2023-04-25T15:03:42;11.20;57.90
23301;DHT22;11819;51.394;12.340;2023-04-25T15:06:08;11.10;58.10
23301;DHT22;11819;51.394;12.340;2023-04-25T15:08:33;11.10;58.20
23301;DHT22;11819;51.394;12.340;2023-04-25T15:11:00;11.20;58.50
23301;DHT22;11819;51.394;12.340;2023-04-25T15:13:27;11.20;58.20
23301;DHT22;11819;51.394;12.340;2023-04-25T15:15:53;11.20;58.10
23301;DHT22;11819;51.394;12.340;2023-04-25T15:18:22;11.20;57.40
23301;DHT22;11819;51.394;12.340;2023-04-25T15:20:52;11.20;57.20
23301;DHT22;11819;51.394;12.340;2023-04-25T15:23:19;11.20;57.80
23301;DHT22;11819;51.394;12.340;2023-04-25T15:25:45;11.20;58.20
23301;DHT22;11819;51.394;12.340;2023-04-25T15:28:13;11.20;58.50
23301;DHT22;11819;51.394;12.340;2023-04-25T15:30:42;11.30;58.90
23301;DHT22;11819;51.394;12.340;2023-04-25T15:33:08;11.40;59.00
23301;DHT22;11819;51.394;12.340;2023-04-25T15:35:34;11.40;59.00
23301;DHT22;11819;51.394;12.340;2023-04-25T15:37:59;11.50;59.20
23301;DHT22;11819;51.394;12.340;2023-04-25T15:40:25;11.50;59.00
23301;DHT22;11819;51.394;12.340;2023-04-25T15:42:51;11.50;58.40
23301;DHT22;11819;51.394;12.340;2023-04-25T15:45:18;11.50;58.00
23301;DHT22;11819;51.394;12.340;2023-04-25T15:47:44;11.60;56.90